createdAt,value
2019-03-20T00:01:27.639Z,12.67
2019-03-20T00:03:57.060Z,14.60
2019-03-20T00:06:26.009Z,12.03
2019-03-20T00:08:59.713Z,10.87
2019-03-20T00:11:29.091Z,12.87
2019-03-20T00:14:00.955Z,18.73
2019-03-20T00:16:45.559Z,15.07
2019-03-20T00:19:21.977Z,14.00
2019-03-20T00:21:51.183Z,13.87
2019-03-20T00:24:26.110Z,12.67
2019-03-20T00:26:55.402Z,14.73
2019-03-20T00:29:30.172Z,14.73
2019-03-20T00:31:59.311Z,17.20
2019-03-20T00:34:29.054Z,19.60
2019-03-20T00:37:00.505Z,17.77
2019-03-20T00:39:32.680Z,21.20
2019-03-20T00:42:01.588Z,23.40
2019-03-20T00:44:32.713Z,24.80
2019-03-20T00:47:02.037Z,19.97
2019-03-20T00:49:30.970Z,22.33
2019-03-20T00:51:59.952Z,20.90
2019-03-20T00:54:33.928Z,23.83
2019-03-20T00:57:02.887Z,23.73
2019-03-20T00:59:32.094Z,21.43
2019-03-20T01:02:00.720Z,24.67
2019-03-20T01:40:53.454Z,24.10
2019-03-20T01:55:03.542Z,23.40
2019-03-20T01:57:44.551Z,27.43
2019-03-20T02:00:13.695Z,30.17
2019-03-20T02:02:44.569Z,27.17
2019-03-20T02:05:17.687Z,27.83
2019-03-20T02:07:49.601Z,30.10
2019-03-20T02:10:21.969Z,28.37
2019-03-20T02:12:50.809Z,31.77
2019-03-20T02:15:19.806Z,29.37
2019-03-20T02:17:48.615Z,31.03
2019-03-20T02:20:17.377Z,32.07
2019-03-20T02:22:57.988Z,28.63
2019-03-20T02:25:34.078Z,27.77
2019-03-20T02:28:03.464Z,30.93
2019-03-20T02:30:32.500Z,34.43
2019-03-20T02:33:01.435Z,29.30
2019-03-20T02:35:31.914Z,31.47
2019-03-20T02:38:00.698Z,26.83
2019-03-20T02:40:34.067Z,27.47
2019-03-20T02:43:13.541Z,38.73
2019-03-20T02:45:46.283Z,31.43
2019-03-20T02:48:18.555Z,35.50
2019-03-20T02:51:00.760Z,36.10
2019-03-20T02:53:47.934Z,35.83
2019-03-20T02:56:18.292Z,39.70
2019-03-20T02:58:47.293Z,37.97
2019-03-20T03:01:16.007Z,38.50
2019-03-20T03:03:47.901Z,41.10
2019-03-20T03:06:17.116Z,44.60
2019-03-20T03:08:49.748Z,44.40
2019-03-20T03:11:22.029Z,40.30
2019-03-20T03:13:53.689Z,38.43
2019-03-20T03:16:38.617Z,45.13
2019-03-20T03:19:12.413Z,43.23
2019-03-20T03:21:44.242Z,46.80
2019-03-20T03:24:13.316Z,42.30
2019-03-20T03:26:47.401Z,42.37
2019-03-20T03:29:24.612Z,48.53
2019-03-20T03:31:59.423Z,44.30
2019-03-20T03:34:30.852Z,49.90
2019-03-20T03:36:59.776Z,49.10
2019-03-20T03:39:29.034Z,47.03
2019-03-20T03:41:58.248Z,51.10
2019-03-20T03:44:27.181Z,51.93
2019-03-20T03:46:56.018Z,58.27
2019-03-20T03:49:31.107Z,56.73
2019-03-20T03:52:00.065Z,55.53
2019-03-20T03:54:28.881Z,53.57
2019-03-20T03:56:57.550Z,55.47
2019-03-20T03:59:26.582Z,60.33
2019-03-20T04:01:55.520Z,65.33
2019-03-20T04:04:24.289Z,61.40
2019-03-20T04:06:54.474Z,60.30
2019-03-20T04:09:23.429Z,55.80
2019-03-20T04:11:58.531Z,52.80
2019-03-20T04:14:28.178Z,48.93
2019-03-20T04:16:57.529Z,42.57
2019-03-20T04:19:29.662Z,48.77
2019-03-20T04:21:59.247Z,43.53
2019-03-20T04:24:28.699Z,43.97
2019-03-20T04:26:57.870Z,49.67
2019-03-20T04:29:26.791Z,48.93
2019-03-20T04:31:55.714Z,48.30
2019-03-20T04:34:24.738Z,45.47
2019-03-20T04:36:53.813Z,37.37
2019-03-20T04:39:22.876Z,43.90
2019-03-20T04:41:51.710Z,41.60
2019-03-20T04:44:21.200Z,33.80
2019-03-20T04:46:49.923Z,39.40
2019-03-20T04:49:21.724Z,38.60
2019-03-20T04:51:50.867Z,43.97
2019-03-20T04:54:19.998Z,40.37
2019-03-20T04:56:49.072Z,36.37
2019-03-20T04:59:18.897Z,35.83
2019-03-20T05:01:48.061Z,34.63
2019-03-20T05:04:20.503Z,38.10
2019-03-20T05:06:58.859Z,34.67
2019-03-20T05:09:24.309Z,40.57
2019-03-20T05:11:53.674Z,40.43
2019-03-20T05:14:22.545Z,44.83
2019-03-20T05:16:57.066Z,41.93
2019-03-20T05:19:26.509Z,42.83
2019-03-20T05:21:55.919Z,44.10
2019-03-20T05:24:28.416Z,38.53
2019-03-20T05:26:57.660Z,37.03
2019-03-20T05:29:27.112Z,45.50
2019-03-20T05:31:55.895Z,43.30
2019-03-20T05:34:24.689Z,46.07
2019-03-20T05:37:10.442Z,41.23
2019-03-20T05:39:39.014Z,53.57
2019-03-20T05:42:19.150Z,49.93
2019-03-20T05:44:48.296Z,55.97
2019-03-20T05:47:17.587Z,62.70
2019-03-20T05:49:52.192Z,65.60
2019-03-20T05:52:23.507Z,66.63
2019-03-20T05:54:52.674Z,58.63
2019-03-20T05:57:24.966Z,63.83
2019-03-20T05:59:55.556Z,56.17
2019-03-20T06:02:27.378Z,59.23
2019-03-20T06:04:59.519Z,63.07
2019-03-20T06:07:31.781Z,59.83
2019-03-20T06:10:01.144Z,72.67
2019-03-20T06:12:30.712Z,63.40
2019-03-20T06:15:24.743Z,62.67
2019-03-20T06:18:00.429Z,66.10
2019-03-20T06:20:34.100Z,64.07
2019-03-20T06:23:06.193Z,60.67
2019-03-20T06:25:40.649Z,64.43
2019-03-20T06:28:10.037Z,66.47
2019-03-20T06:30:43.450Z,60.77
2019-03-20T06:33:12.410Z,64.23
2019-03-20T06:35:41.515Z,63.27
2019-03-20T06:38:21.061Z,65.17
2019-03-20T06:40:49.838Z,65.70
2019-03-20T06:47:28.599Z,56.17
2019-03-20T06:49:51.211Z,60.63
2019-03-20T06:55:31.702Z,60.53
2019-03-20T06:58:43.023Z,61.53
2019-03-20T07:01:36.950Z,57.40
2019-03-20T07:04:34.788Z,59.37
2019-03-20T07:07:15.440Z,61.63
2019-03-20T07:09:49.203Z,65.30
2019-03-20T07:12:18.286Z,59.13
2019-03-20T07:14:50.467Z,58.97
2019-03-20T07:17:20.894Z,54.03
2019-03-20T07:19:50.092Z,61.13
2019-03-20T07:22:30.551Z,48.20
2019-03-20T07:25:00.507Z,49.23
2019-03-20T07:27:29.941Z,58.80
2019-03-20T07:30:02.111Z,54.97
2019-03-20T07:32:31.152Z,55.87
2019-03-20T07:35:04.656Z,52.53
2019-03-20T07:37:36.018Z,52.77
2019-03-20T07:40:08.469Z,53.27
2019-03-20T07:42:49.506Z,48.23
2019-03-20T07:45:30.935Z,55.17
2019-03-20T07:48:21.982Z,54.17
2019-03-20T07:50:49.935Z,45.73
2019-03-20T07:53:24.761Z,50.93
2019-03-20T07:55:53.952Z,49.13
2019-03-20T07:58:26.157Z,50.50
2019-03-20T08:00:58.865Z,49.80
2019-03-20T08:03:28.095Z,39.77
2019-03-20T08:06:09.739Z,45.37
2019-03-20T08:08:41.658Z,41.47
2019-03-20T08:11:12.253Z,47.20
2019-03-20T08:14:08.973Z,41.60
2019-03-20T08:16:40.658Z,41.00
2019-03-20T08:19:12.735Z,41.97
2019-03-20T08:21:46.632Z,43.50
2019-03-20T08:24:21.681Z,41.90
2019-03-20T08:27:07.666Z,39.40
2019-03-20T08:29:49.965Z,39.50
2019-03-20T08:32:21.730Z,38.90
2019-03-20T11:44:11.292Z,26.33
2019-03-20T11:46:39.848Z,28.13
2019-03-20T11:49:24.224Z,26.37
2019-03-20T11:51:53.045Z,23.83
2019-03-20T11:54:21.670Z,34.60
2019-03-20T11:56:50.431Z,29.47
2019-03-20T11:59:18.951Z,20.83
2019-03-20T12:01:47.474Z,19.67
2019-03-20T12:04:16.109Z,22.63
2019-03-20T12:06:44.664Z,22.37
2019-03-20T12:09:13.347Z,20.53
2019-03-20T12:11:46.047Z,21.87
2019-03-20T12:14:15.696Z,25.13
2019-03-20T12:16:44.807Z,23.93
2019-03-20T12:19:13.459Z,20.03
2019-03-20T12:21:42.061Z,21.17
2019-03-20T12:24:10.703Z,19.20
2019-03-20T12:26:39.338Z,18.70
2019-03-20T12:29:08.969Z,19.60
2019-03-20T12:31:37.648Z,18.63
2019-03-20T12:34:06.353Z,20.93
2019-03-20T12:36:35.083Z,19.10
2019-03-20T12:39:05.136Z,18.03
2019-03-20T12:41:33.946Z,21.63
2019-03-20T12:44:02.619Z,20.90
2019-03-20T12:46:41.292Z,17.07
2019-03-20T12:49:01.436Z,20.17
2019-03-20T12:51:36.031Z,14.50
2019-03-20T12:54:15.585Z,22.40
2019-03-20T12:56:44.816Z,20.93
2019-03-20T12:59:16.916Z,19.93
2019-03-20T13:01:46.609Z,20.83
2019-03-20T13:04:16.099Z,22.87
2019-03-20T13:06:45.986Z,20.73
2019-03-20T13:09:21.432Z,20.10
2019-03-20T13:11:50.165Z,18.40
2019-03-20T13:14:19.095Z,18.53
2019-03-20T13:16:47.887Z,19.13
2019-03-20T13:19:16.571Z,19.63
2019-03-20T13:21:45.151Z,18.77
2019-03-20T13:24:13.875Z,20.70
2019-03-20T13:26:43.031Z,15.93
2019-03-20T13:29:13.625Z,19.67
2019-03-20T13:31:42.538Z,20.33
2019-03-20T13:34:11.906Z,20.50
2019-03-20T13:36:41.431Z,19.27
2019-03-20T13:39:09.883Z,16.70
2019-03-20T13:41:38.362Z,17.13
2019-03-20T13:44:07.031Z,17.40
2019-03-20T13:46:35.530Z,18.13
2019-03-20T13:49:04.222Z,17.47
2019-03-20T13:51:32.664Z,16.97
2019-03-20T13:54:01.167Z,16.57
2019-03-20T13:56:29.765Z,21.10
2019-03-20T13:58:58.552Z,18.93
2019-03-20T14:01:27.113Z,17.20
2019-03-20T14:03:55.953Z,15.37
2019-03-20T14:06:24.519Z,17.33
2019-03-20T14:08:54.302Z,15.93
2019-03-20T14:13:59.198Z,16.77
2019-03-20T14:16:27.717Z,24.90
2019-03-20T14:18:56.393Z,18.27
2019-03-20T14:21:25.078Z,15.67
2019-03-20T14:23:53.568Z,18.07
2019-03-20T14:26:24.601Z,20.90
2019-03-20T14:28:53.403Z,15.33
2019-03-20T14:31:22.181Z,15.27
2019-03-20T14:33:51.127Z,15.87
2019-03-20T14:36:19.847Z,13.37
2019-03-20T14:38:48.955Z,17.87
2019-03-20T14:41:21.755Z,19.33
2019-03-20T14:43:48.176Z,21.90
2019-03-20T14:46:16.803Z,17.70
2019-03-20T14:48:48.133Z,16.53
2019-03-20T14:51:16.837Z,21.17
2019-03-20T14:53:45.914Z,17.17
2019-03-20T14:56:14.689Z,18.37
2019-03-20T14:58:44.422Z,22.70
2019-03-20T15:01:13.195Z,13.23
2019-03-20T15:03:41.779Z,16.83
2019-03-20T15:06:10.497Z,19.37
2019-03-20T15:08:39.030Z,20.47
2019-03-20T15:11:07.801Z,16.00
2019-03-20T15:13:39.824Z,20.33
2019-03-20T15:16:10.108Z,24.57
2019-03-20T15:18:38.762Z,25.13
2019-03-20T15:21:07.310Z,21.90
2019-03-20T15:23:36.715Z,23.17
2019-03-20T15:26:05.410Z,22.00
2019-03-20T15:28:34.152Z,23.23
2019-03-20T15:31:03.334Z,22.67
2019-03-20T15:33:32.554Z,20.27
2019-03-20T15:36:02.020Z,26.07
2019-03-20T15:38:31.365Z,23.77
2019-03-20T15:41:00.048Z,19.53
2019-03-20T15:43:28.778Z,24.50
2019-03-20T15:45:57.587Z,20.43
2019-03-20T15:48:26.338Z,22.73
2019-03-20T15:50:55.069Z,19.73
2019-03-20T15:53:26.151Z,19.83
2019-03-20T15:55:55.065Z,16.57
2019-03-20T15:58:23.823Z,19.20
2019-03-20T16:00:52.528Z,20.70
2019-03-20T16:03:21.722Z,15.00
2019-03-20T16:05:51.011Z,16.53
2019-03-20T16:08:29.204Z,16.93
2019-03-20T16:10:53.471Z,13.97
2019-03-20T16:13:22.299Z,12.20
2019-03-20T16:16:02.211Z,17.53
2019-03-20T16:18:34.339Z,16.47
2019-03-20T16:21:03.502Z,16.37
2019-03-20T16:23:35.597Z,18.00
2019-03-20T16:26:10.258Z,16.37
2019-03-20T16:28:38.803Z,17.03
2019-03-20T16:31:11.122Z,16.97
2019-03-20T16:33:39.799Z,13.07
2019-03-20T16:36:12.281Z,14.80
2019-03-20T16:38:44.496Z,22.03
2019-03-20T16:41:22.357Z,19.10
2019-03-20T16:43:51.138Z,22.57
2019-03-20T16:46:19.871Z,20.77
2019-03-20T16:48:50.881Z,23.13
2019-03-20T16:51:22.667Z,21.13
2019-03-20T16:53:51.837Z,21.97
2019-03-20T16:56:20.706Z,20.63
2019-03-20T16:58:55.385Z,25.67
2019-03-20T17:01:35.564Z,22.03
2019-03-20T17:04:02.826Z,19.10
2019-03-20T17:06:35.026Z,19.03
2019-03-20T17:12:04.910Z,20.63
2019-03-20T17:14:33.692Z,16.00
2019-03-20T17:17:02.417Z,16.37
2019-03-20T17:19:41.197Z,17.63
2019-03-20T17:22:13.293Z,18.93
2019-03-20T17:24:42.945Z,13.87
2019-03-20T17:27:11.862Z,16.73
2019-03-20T17:29:41.027Z,13.23
2019-03-20T17:32:22.268Z,16.30
2019-03-20T17:35:14.054Z,14.30
2019-03-20T17:37:54.308Z,16.10
2019-03-20T17:40:24.189Z,15.63
2019-03-20T17:43:04.540Z,16.10
2019-03-20T17:45:36.147Z,18.33
2019-03-20T17:51:31.798Z,16.97
2019-03-20T17:54:42.303Z,12.97
2019-03-20T18:12:10.085Z,18.47
2019-03-20T18:14:51.996Z,16.40
2019-03-20T18:17:21.341Z,16.77
2019-03-20T18:24:01.298Z,11.77
2019-03-20T18:26:32.954Z,9.23
2019-03-20T18:29:07.594Z,11.20
2019-03-20T18:31:45.745Z,11.70
2019-03-20T18:34:10.398Z,12.13
2019-03-20T18:36:39.586Z,12.97
2019-03-20T18:39:27.716Z,14.27
2019-03-20T18:44:39.741Z,12.40
2019-03-20T18:47:30.813Z,11.13
2019-03-20T18:50:01.111Z,11.90
2019-03-20T18:52:31.661Z,12.10
2019-03-20T18:55:00.554Z,14.13
2019-03-20T18:57:29.537Z,10.40
2019-03-20T19:00:02.010Z,16.53
2019-03-20T19:02:31.764Z,12.77
2019-03-20T19:05:07.081Z,12.90
2019-03-20T19:07:43.674Z,16.47
2019-03-20T19:10:13.228Z,13.07
2019-03-20T19:12:42.331Z,15.80
2019-03-20T19:15:23.271Z,16.47
2019-03-20T19:18:01.022Z,14.27
2019-03-20T19:20:43.193Z,17.90
2019-03-20T19:23:40.289Z,15.13
2019-03-20T19:26:31.076Z,15.93
2019-03-20T19:29:15.679Z,17.40
2019-03-20T19:31:48.877Z,17.93
2019-03-20T19:34:26.556Z,18.73
2019-03-20T19:37:19.766Z,17.20
2019-03-20T19:39:59.411Z,17.43
2019-03-20T19:42:41.857Z,19.73
2019-03-20T19:45:19.514Z,20.10
2019-03-20T19:47:56.773Z,17.20
2019-03-20T19:50:26.200Z,12.03
2019-03-20T19:53:24.876Z,13.33
2019-03-20T19:55:58.611Z,14.90
2019-03-20T19:58:49.584Z,14.77
2019-03-20T20:01:21.264Z,15.17
2019-03-20T20:03:54.240Z,13.73
2019-03-20T20:06:25.785Z,16.43
2019-03-20T20:41:17.902Z,15.90
2019-03-20T20:44:24.210Z,22.33
2019-03-20T20:46:56.890Z,21.00
2019-03-20T20:49:28.184Z,23.17
2019-03-20T20:52:00.554Z,22.23
2019-03-20T20:57:25.137Z,20.43
2019-03-20T21:14:49.168Z,23.43
2019-03-20T21:20:25.946Z,24.97
